sensor_id;sensor_type;location;lat;lon;timestamp;P1;durP1;ratioP1;P2;durP2;ratioP2
51556;SDS011;38766;53.194;5.532;2022-11-24T00:00:27;22.65;;;8.20;;
51556;SDS011;38766;53.194;5.532;2022-11-24T00:02:52;26.48;;;7.55;;
51556;SDS011;38766;53.194;5.532;2022-11-24T00:05:18;27.08;;;8.40;;
51556;SDS011;38766;53.194;5.532;2022-11-24T00:07:44;25.20;;;8.68;;
51556;SDS011;38766;53.194;5.532;2022-11-24T00:10:10;29.95;;;8.00;;
51556;SDS011;38766;53.194;5.532;2022-11-24T00:12:35;23.15;;;7.47;;
51556;SDS011;38766;53.194;5.532;2022-11-24T00:15:01;15.70;;;6.40;;
51556;SDS011;38766;53.194;5.532;2022-11-24T00:17:27;23.35;;;8.38;;
51556;SDS011;38766;53.194;5.532;2022-11-24T00:19:53;29.30;;;8.60;;
51556;SDS011;38766;53.194;5.532;2022-11-24T00:22:19;31.27;;;8.18;;
51556;SDS011;38766;53.194;5.532;2022-11-24T00:24:45;28.40;;;8.30;;
51556;SDS011;38766;53.194;5.532;2022-11-24T00:27:10;33.33;;;8.55;;
51556;SDS011;38766;53.194;5.532;2022-11-24T00:29:36;29.40;;;8.23;;
51556;SDS011;38766;53.194;5.532;2022-11-24T00:32:02;27.00;;;8.95;;
51556;SDS011;38766;53.194;5.532;2022-11-24T00:34:30;24.77;;;7.82;;
51556;SDS011;38766;53.194;5.532;2022-11-24T00:36:56;28.25;;;9.07;;
51556;SDS011;38766;53.194;5.532;2022-11-24T00:39:22;24.23;;;7.63;;
51556;SDS011;38766;53.194;5.532;2022-11-24T00:41:47;26.50;;;7.25;;
51556;SDS011;38766;53.194;5.532;2022-11-24T00:44:13;31.35;;;7.65;;
51556;SDS011;38766;53.194;5.532;2022-11-24T00:46:39;20.20;;;6.95;;
51556;SDS011;38766;53.194;5.532;2022-11-24T00:49:05;22.52;;;6.93;;
51556;SDS011;38766;53.194;5.532;2022-11-24T00:51:30;28.35;;;6.80;;
51556;SDS011;38766;53.194;5.532;2022-11-24T00:53:57;37.13;;;7.90;;
51556;SDS011;38766;53.194;5.532;2022-11-24T00:56:25;23.40;;;6.50;;
51556;SDS011;38766;53.194;5.532;2022-11-24T00:58:52;24.15;;;6.55;;
51556;SDS011;38766;53.194;5.532;2022-11-24T01:01:19;25.83;;;7.20;;
51556;SDS011;38766;53.194;5.532;2022-11-24T01:03:47;25.95;;;6.07;;
51556;SDS011;38766;53.194;5.532;2022-11-24T01:06:16;23.20;;;6.15;;
51556;SDS011;38766;53.194;5.532;2022-11-24T01:08:47;27.00;;;6.23;;
51556;SDS011;38766;53.194;5.532;2022-11-24T01:13:47;31.90;;;7.05;;
51556;SDS011;38766;53.194;5.532;2022-11-24T01:18:45;26.55;;;6.45;;
51556;SDS011;38766;53.194;5.532;2022-11-24T01:21:11;23.10;;;6.45;;
51556;SDS011;38766;53.194;5.532;2022-11-24T01:23:38;17.67;;;5.38;;
51556;SDS011;38766;53.194;5.532;2022-11-24T01:26:04;25.98;;;6.05;;
51556;SDS011;38766;53.194;5.532;2022-11-24T01:28:31;17.55;;;5.03;;
51556;SDS011;38766;53.194;5.532;2022-11-24T01:31:01;25.10;;;5.65;;
51556;SDS011;38766;53.194;5.532;2022-11-24T01:33:28;26.45;;;5.20;;
51556;SDS011;38766;53.194;5.532;2022-11-24T01:35:55;26.52;;;6.15;;
51556;SDS011;38766;53.194;5.532;2022-11-24T01:38:21;25.52;;;5.20;;
51556;SDS011;38766;53.194;5.532;2022-11-24T01:40:47;24.55;;;5.20;;
51556;SDS011;38766;53.194;5.532;2022-11-24T01:43:17;24.90;;;5.43;;
51556;SDS011;38766;53.194;5.532;2022-11-24T01:45:46;13.77;;;4.47;;
51556;SDS011;38766;53.194;5.532;2022-11-24T01:48:13;24.90;;;5.57;;
51556;SDS011;38766;53.194;5.532;2022-11-24T01:50:45;24.55;;;5.07;;
51556;SDS011;38766;53.194;5.532;2022-11-24T01:53:19;18.65;;;4.50;;
51556;SDS011;38766;53.194;5.532;2022-11-24T01:55:47;15.00;;;3.88;;
51556;SDS011;38766;53.194;5.532;2022-11-24T01:58:14;24.02;;;4.72;;
51556;SDS011;38766;53.194;5.532;2022-11-24T02:00:49;17.95;;;3.92;;
51556;SDS011;38766;53.194;5.532;2022-11-24T02:03:17;21.27;;;4.63;;
51556;SDS011;38766;53.194;5.532;2022-11-24T02:06:09;17.48;;;4.43;;
51556;SDS011;38766;53.194;5.532;2022-11-24T02:11:09;19.90;;;4.15;;
51556;SDS011;38766;53.194;5.532;2022-11-24T02:13:35;18.92;;;4.63;;
51556;SDS011;38766;53.194;5.532;2022-11-24T02:16:03;20.75;;;4.32;;
51556;SDS011;38766;53.194;5.532;2022-11-24T02:18:31;14.05;;;4.53;;
51556;SDS011;38766;53.194;5.532;2022-11-24T02:20:57;18.80;;;4.75;;
51556;SDS011;38766;53.194;5.532;2022-11-24T02:23:35;15.93;;;5.07;;
51556;SDS011;38766;53.194;5.532;2022-11-24T02:28:35;15.98;;;4.05;;
51556;SDS011;38766;53.194;5.532;2022-11-24T02:31:01;24.65;;;5.15;;
51556;SDS011;38766;53.194;5.532;2022-11-24T02:33:28;26.98;;;4.22;;
51556;SDS011;38766;53.194;5.532;2022-11-24T02:35:55;18.00;;;4.10;;
51556;SDS011;38766;53.194;5.532;2022-11-24T02:38:29;18.20;;;4.95;;
51556;SDS011;38766;53.194;5.532;2022-11-24T02:40:56;15.60;;;3.90;;
51556;SDS011;38766;53.194;5.532;2022-11-24T02:43:26;20.80;;;3.85;;
51556;SDS011;38766;53.194;5.532;2022-11-24T02:45:56;21.08;;;4.63;;
51556;SDS011;38766;53.194;5.532;2022-11-24T02:48:21;21.33;;;4.75;;
51556;SDS011;38766;53.194;5.532;2022-11-24T02:50:47;15.27;;;4.10;;
51556;SDS011;38766;53.194;5.532;2022-11-24T02:53:13;14.25;;;4.45;;
51556;SDS011;38766;53.194;5.532;2022-11-24T02:55:38;15.95;;;3.83;;
51556;SDS011;38766;53.194;5.532;2022-11-24T02:58:04;20.35;;;4.55;;
51556;SDS011;38766;53.194;5.532;2022-11-24T03:00:30;16.67;;;4.75;;
51556;SDS011;38766;53.194;5.532;2022-11-24T03:02:55;15.73;;;4.05;;
51556;SDS011;38766;53.194;5.532;2022-11-24T03:05:22;17.75;;;3.58;;
51556;SDS011;38766;53.194;5.532;2022-11-24T03:07:48;16.58;;;4.20;;
51556;SDS011;38766;53.194;5.532;2022-11-24T03:10:13;15.95;;;3.72;;
51556;SDS011;38766;53.194;5.532;2022-11-24T03:12:40;19.45;;;4.07;;
51556;SDS011;38766;53.194;5.532;2022-11-24T03:15:05;22.77;;;4.78;;
51556;SDS011;38766;53.194;5.532;2022-11-24T03:17:31;28.60;;;5.65;;
51556;SDS011;38766;53.194;5.532;2022-11-24T03:19:57;25.55;;;4.57;;
51556;SDS011;38766;53.194;5.532;2022-11-24T03:22:24;14.50;;;4.03;;
51556;SDS011;38766;53.194;5.532;2022-11-24T03:24:50;22.52;;;3.80;;
51556;SDS011;38766;53.194;5.532;2022-11-24T03:27:17;18.00;;;4.18;;
51556;SDS011;38766;53.194;5.532;2022-11-24T03:29:43;13.35;;;3.67;;
51556;SDS011;38766;53.194;5.532;2022-11-24T03:32:08;21.83;;;4.18;;
51556;SDS011;38766;53.194;5.532;2022-11-24T03:34:34;19.10;;;4.40;;
51556;SDS011;38766;53.194;5.532;2022-11-24T03:36:59;18.65;;;4.43;;
51556;SDS011;38766;53.194;5.532;2022-11-24T03:39:25;21.35;;;4.90;;
51556;SDS011;38766;53.194;5.532;2022-11-24T03:41:51;19.80;;;5.32;;
51556;SDS011;38766;53.194;5.532;2022-11-24T03:44:17;25.70;;;5.03;;
51556;SDS011;38766;53.194;5.532;2022-11-24T03:46:42;21.35;;;3.70;;
51556;SDS011;38766;53.194;5.532;2022-11-24T03:49:08;28.25;;;5.35;;
51556;SDS011;38766;53.194;5.532;2022-11-24T03:51:34;23.42;;;4.15;;
51556;SDS011;38766;53.194;5.532;2022-11-24T03:54:00;20.35;;;4.80;;
51556;SDS011;38766;53.194;5.532;2022-11-24T03:56:26;23.23;;;4.72;;
51556;SDS011;38766;53.194;5.532;2022-11-24T03:58:52;25.45;;;5.68;;
51556;SDS011;38766;53.194;5.532;2022-11-24T04:01:17;19.25;;;4.95;;
51556;SDS011;38766;53.194;5.532;2022-11-24T04:03:43;28.15;;;4.85;;
51556;SDS011;38766;53.194;5.532;2022-11-24T04:06:09;12.52;;;4.18;;
51556;SDS011;38766;53.194;5.532;2022-11-24T04:08:35;21.67;;;4.90;;
51556;SDS011;38766;53.194;5.532;2022-11-24T04:11:01;18.75;;;4.60;;
51556;SDS011;38766;53.194;5.532;2022-11-24T04:13:26;19.73;;;4.93;;
51556;SDS011;38766;53.194;5.532;2022-11-24T04:15:52;18.40;;;4.32;;
51556;SDS011;38766;53.194;5.532;2022-11-24T04:18:18;24.50;;;5.18;;
51556;SDS011;38766;53.194;5.532;2022-11-24T04:20:43;19.63;;;4.55;;
51556;SDS011;38766;53.194;5.532;2022-11-24T04:23:09;17.52;;;4.30;;
51556;SDS011;38766;53.194;5.532;2022-11-24T04:25:35;14.75;;;4.10;;
51556;SDS011;38766;53.194;5.532;2022-11-24T04:28:01;17.80;;;4.38;;
51556;SDS011;38766;53.194;5.532;2022-11-24T04:30:27;15.32;;;3.85;;
51556;SDS011;38766;53.194;5.532;2022-11-24T04:32:53;17.27;;;5.05;;
51556;SDS011;38766;53.194;5.532;2022-11-24T04:35:19;18.58;;;4.40;;
51556;SDS011;38766;53.194;5.532;2022-11-24T04:37:45;20.23;;;4.70;;
51556;SDS011;38766;53.194;5.532;2022-11-24T04:40:10;15.23;;;4.03;;
51556;SDS011;38766;53.194;5.532;2022-11-24T04:42:37;27.65;;;4.90;;
51556;SDS011;38766;53.194;5.532;2022-11-24T04:45:03;17.73;;;4.03;;
51556;SDS011;38766;53.194;5.532;2022-11-24T04:47:30;12.68;;;3.53;;
51556;SDS011;38766;53.194;5.532;2022-11-24T04:49:55;15.02;;;5.18;;
51556;SDS011;38766;53.194;5.532;2022-11-24T04:52:21;20.73;;;4.57;;
51556;SDS011;38766;53.194;5.532;2022-11-24T04:54:48;11.43;;;3.67;;
51556;SDS011;38766;53.194;5.532;2022-11-24T04:57:24;14.63;;;3.22;;
51556;SDS011;38766;53.194;5.532;2022-11-24T04:59:50;15.70;;;3.75;;
51556;SDS011;38766;53.194;5.532;2022-11-24T05:02:17;15.95;;;4.13;;
51556;SDS011;38766;53.194;5.532;2022-11-24T05:04:43;14.30;;;3.75;;
51556;SDS011;38766;53.194;5.532;2022-11-24T05:07:15;14.93;;;3.60;;
51556;SDS011;38766;53.194;5.532;2022-11-24T05:09:41;22.83;;;3.80;;
51556;SDS011;38766;53.194;5.532;2022-11-24T05:12:26;15.63;;;3.13;;
51556;SDS011;38766;53.194;5.532;2022-11-24T05:14:56;18.65;;;3.65;;
51556;SDS011;38766;53.194;5.532;2022-11-24T05:17:29;13.90;;;3.25;;
51556;SDS011;38766;53.194;5.532;2022-11-24T05:19:56;15.55;;;3.63;;
51556;SDS011;38766;53.194;5.532;2022-11-24T05:22:22;11.52;;;3.40;;
51556;SDS011;38766;53.194;5.532;2022-11-24T05:24:51;17.33;;;3.60;;
51556;SDS011;38766;53.194;5.532;2022-11-24T05:27:16;15.43;;;3.38;;
51556;SDS011;38766;53.194;5.532;2022-11-24T05:29:42;17.17;;;3.45;;
51556;SDS011;38766;53.194;5.532;2022-11-24T05:32:07;12.82;;;3.55;;
51556;SDS011;38766;53.194;5.532;2022-11-24T05:34:33;16.60;;;3.83;;
51556;SDS011;38766;53.194;5.532;2022-11-24T05:36:59;17.70;;;3.58;;
51556;SDS011;38766;53.194;5.532;2022-11-24T05:39:34;16.38;;;2.83;;
51556;SDS011;38766;53.194;5.532;2022-11-24T05:42:00;14.43;;;2.90;;
51556;SDS011;38766;53.194;5.532;2022-11-24T05:44:47;13.60;;;3.35;;
51556;SDS011;38766;53.194;5.532;2022-11-24T05:47:13;14.68;;;3.75;;
51556;SDS011;38766;53.194;5.532;2022-11-24T05:49:39;16.70;;;3.72;;
51556;SDS011;38766;53.194;5.532;2022-11-24T05:52:04;17.00;;;4.15;;
51556;SDS011;38766;53.194;5.532;2022-11-24T05:54:30;16.23;;;3.95;;
51556;SDS011;38766;53.194;5.532;2022-11-24T05:56:55;18.30;;;3.28;;
51556;SDS011;38766;53.194;5.532;2022-11-24T05:59:24;20.02;;;3.38;;
51556;SDS011;38766;53.194;5.532;2022-11-24T06:01:49;13.63;;;3.40;;
51556;SDS011;38766;53.194;5.532;2022-11-24T06:04:15;14.57;;;4.55;;
51556;SDS011;38766;53.194;5.532;2022-11-24T06:06:41;16.88;;;3.47;;
51556;SDS011;38766;53.194;5.532;2022-11-24T06:09:06;11.13;;;3.28;;
51556;SDS011;38766;53.194;5.532;2022-11-24T06:11:35;15.10;;;4.00;;
51556;SDS011;38766;53.194;5.532;2022-11-24T06:14:00;14.40;;;3.67;;
51556;SDS011;38766;53.194;5.532;2022-11-24T06:16:26;17.85;;;3.38;;
51556;SDS011;38766;53.194;5.532;2022-11-24T06:18:52;16.38;;;3.25;;
51556;SDS011;38766;53.194;5.532;2022-11-24T06:21:17;14.75;;;3.40;;
51556;SDS011;38766;53.194;5.532;2022-11-24T06:23:48;17.38;;;3.47;;
51556;SDS011;38766;53.194;5.532;2022-11-24T06:26:13;17.27;;;2.55;;
51556;SDS011;38766;53.194;5.532;2022-11-24T06:28:41;18.92;;;3.53;;
51556;SDS011;38766;53.194;5.532;2022-11-24T06:31:07;15.20;;;3.80;;
51556;SDS011;38766;53.194;5.532;2022-11-24T06:33:34;15.60;;;3.67;;
51556;SDS011;38766;53.194;5.532;2022-11-24T06:36:02;13.38;;;3.50;;
51556;SDS011;38766;53.194;5.532;2022-11-24T06:38:33;9.75;;;2.92;;
51556;SDS011;38766;53.194;5.532;2022-11-24T06:41:00;17.92;;;3.40;;
51556;SDS011;38766;53.194;5.532;2022-11-24T06:43:27;10.23;;;3.13;;
51556;SDS011;38766;53.194;5.532;2022-11-24T06:45:54;12.52;;;3.20;;
51556;SDS011;38766;53.194;5.532;2022-11-24T06:48:20;12.95;;;3.42;;
51556;SDS011;38766;53.194;5.532;2022-11-24T06:50:46;17.10;;;3.92;;
51556;SDS011;38766;53.194;5.532;2022-11-24T06:53:12;12.43;;;2.90;;
51556;SDS011;38766;53.194;5.532;2022-11-24T06:55:38;15.00;;;3.72;;
51556;SDS011;38766;53.194;5.532;2022-11-24T06:58:04;12.25;;;3.28;;
51556;SDS011;38766;53.194;5.532;2022-11-24T07:00:30;13.65;;;3.67;;
51556;SDS011;38766;53.194;5.532;2022-11-24T07:02:57;12.82;;;3.10;;
51556;SDS011;38766;53.194;5.532;2022-11-24T07:05:23;14.48;;;3.42;;
51556;SDS011;38766;53.194;5.532;2022-11-24T07:07:49;15.27;;;3.55;;
51556;SDS011;38766;53.194;5.532;2022-11-24T07:10:14;12.05;;;3.33;;
51556;SDS011;38766;53.194;5.532;2022-11-24T07:12:40;15.95;;;4.15;;
51556;SDS011;38766;53.194;5.532;2022-11-24T07:15:06;15.48;;;3.45;;
51556;SDS011;38766;53.194;5.532;2022-11-24T07:17:35;13.48;;;3.45;;
51556;SDS011;38766;53.194;5.532;2022-11-24T07:20:05;23.40;;;4.28;;
51556;SDS011;38766;53.194;5.532;2022-11-24T07:22:32;11.32;;;3.97;;
51556;SDS011;38766;53.194;5.532;2022-11-24T07:24:58;14.90;;;3.58;;
51556;SDS011;38766;53.194;5.532;2022-11-24T07:27:44;20.77;;;4.00;;
51556;SDS011;38766;53.194;5.532;2022-11-24T07:30:10;13.60;;;3.53;;
51556;SDS011;38766;53.194;5.532;2022-11-24T07:32:35;17.90;;;4.22;;
51556;SDS011;38766;53.194;5.532;2022-11-24T07:35:01;10.40;;;3.35;;
51556;SDS011;38766;53.194;5.532;2022-11-24T07:37:26;14.68;;;3.08;;
51556;SDS011;38766;53.194;5.532;2022-11-24T07:39:52;8.85;;;3.40;;
51556;SDS011;38766;53.194;5.532;2022-11-24T07:42:18;17.50;;;3.50;;
51556;SDS011;38766;53.194;5.532;2022-11-24T07:44:43;13.02;;;3.75;;
51556;SDS011;38766;53.194;5.532;2022-11-24T07:47:18;12.32;;;3.70;;
51556;SDS011;38766;53.194;5.532;2022-11-24T07:49:43;15.10;;;4.85;;
51556;SDS011;38766;53.194;5.532;2022-11-24T07:52:09;10.95;;;3.47;;
51556;SDS011;38766;53.194;5.532;2022-11-24T07:54:35;14.98;;;3.92;;
51556;SDS011;38766;53.194;5.532;2022-11-24T07:57:00;14.35;;;3.78;;
51556;SDS011;38766;53.194;5.532;2022-11-24T07:59:26;15.82;;;3.55;;
51556;SDS011;38766;53.194;5.532;2022-11-24T08:01:51;15.98;;;3.28;;
51556;SDS011;38766;53.194;5.532;2022-11-24T08:04:17;16.95;;;3.42;;
51556;SDS011;38766;53.194;5.532;2022-11-24T08:06:42;15.30;;;3.60;;
51556;SDS011;38766;53.194;5.532;2022-11-24T08:09:08;13.02;;;3.10;;
51556;SDS011;38766;53.194;5.532;2022-11-24T08:11:34;14.68;;;3.30;;
51556;SDS011;38766;53.194;5.532;2022-11-24T08:14:00;10.70;;;2.63;;
51556;SDS011;38766;53.194;5.532;2022-11-24T08:16:26;18.40;;;3.60;;
51556;SDS011;38766;53.194;5.532;2022-11-24T08:18:52;18.63;;;4.03;;
51556;SDS011;38766;53.194;5.532;2022-11-24T08:21:18;15.52;;;3.42;;
51556;SDS011;38766;53.194;5.532;2022-11-24T08:23:44;12.48;;;3.17;;
51556;SDS011;38766;53.194;5.532;2022-11-24T08:26:11;16.48;;;2.83;;
51556;SDS011;38766;53.194;5.532;2022-11-24T08:28:40;15.15;;;2.90;;
51556;SDS011;38766;53.194;5.532;2022-11-24T08:31:07;11.05;;;3.00;;
51556;SDS011;38766;53.194;5.532;2022-11-24T08:33:42;10.02;;;2.85;;
51556;SDS011;38766;53.194;5.532;2022-11-24T08:36:09;11.48;;;3.25;;
51556;SDS011;38766;53.194;5.532;2022-11-24T08:38:36;19.23;;;3.38;;
51556;SDS011;38766;53.194;5.532;2022-11-24T08:41:03;17.13;;;3.83;;
51556;SDS011;38766;53.194;5.532;2022-11-24T08:43:31;10.80;;;2.58;;
51556;SDS011;38766;53.194;5.532;2022-11-24T08:46:04;13.60;;;3.80;;
51556;SDS011;38766;53.194;5.532;2022-11-24T08:48:31;9.07;;;2.38;;
51556;SDS011;38766;53.194;5.532;2022-11-24T08:50:57;12.52;;;2.72;;
51556;SDS011;38766;53.194;5.532;2022-11-24T08:53:23;17.65;;;3.40;;
51556;SDS011;38766;53.194;5.532;2022-11-24T08:55:49;13.60;;;2.78;;
51556;SDS011;38766;53.194;5.532;2022-11-24T08:58:15;12.48;;;2.78;;
51556;SDS011;38766;53.194;5.532;2022-11-24T09:00:42;13.13;;;2.85;;
51556;SDS011;38766;53.194;5.532;2022-11-24T09:03:08;16.35;;;2.88;;
51556;SDS011;38766;53.194;5.532;2022-11-24T09:05:35;10.75;;;2.53;;
51556;SDS011;38766;53.194;5.532;2022-11-24T09:08:01;9.30;;;2.47;;
51556;SDS011;38766;53.194;5.532;2022-11-24T09:10:27;8.75;;;2.20;;
51556;SDS011;38766;53.194;5.532;2022-11-24T09:12:53;9.32;;;1.90;;
51556;SDS011;38766;53.194;5.532;2022-11-24T09:15:18;9.60;;;2.10;;
51556;SDS011;38766;53.194;5.532;2022-11-24T09:17:44;8.05;;;2.00;;
51556;SDS011;38766;53.194;5.532;2022-11-24T09:20:10;4.30;;;1.70;;
51556;SDS011;38766;53.194;5.532;2022-11-24T09:22:36;10.50;;;2.38;;
51556;SDS011;38766;53.194;5.532;2022-11-24T09:25:03;10.88;;;1.85;;
51556;SDS011;38766;53.194;5.532;2022-11-24T09:27:29;8.60;;;2.28;;
51556;SDS011;38766;53.194;5.532;2022-11-24T09:29:55;9.80;;;1.95;;
51556;SDS011;38766;53.194;5.532;2022-11-24T09:32:21;7.47;;;2.03;;
51556;SDS011;38766;53.194;5.532;2022-11-24T09:34:48;12.88;;;2.03;;
51556;SDS011;38766;53.194;5.532;2022-11-24T09:37:14;4.90;;;1.92;;
51556;SDS011;38766;53.194;5.532;2022-11-24T09:39:40;6.20;;;1.95;;
51556;SDS011;38766;53.194;5.532;2022-11-24T09:42:07;6.75;;;2.20;;
51556;SDS011;38766;53.194;5.532;2022-11-24T09:47:20;8.32;;;2.17;;
51556;SDS011;38766;53.194;5.532;2022-11-24T09:50:01;10.27;;;2.30;;
51556;SDS011;38766;53.194;5.532;2022-11-24T09:55:53;6.22;;;2.50;;
51556;SDS011;38766;53.194;5.532;2022-11-24T10:01:03;10.10;;;2.70;;
51556;SDS011;38766;53.194;5.532;2022-11-24T10:03:38;10.82;;;2.85;;
51556;SDS011;38766;53.194;5.532;2022-11-24T10:11:14;10.70;;;2.85;;
51556;SDS011;38766;53.194;5.532;2022-11-24T10:19:18;8.93;;;2.90;;
51556;SDS011;38766;53.194;5.532;2022-11-24T10:24:45;12.07;;;3.00;;
51556;SDS011;38766;53.194;5.532;2022-11-24T10:27:21;8.85;;;2.45;;
51556;SDS011;38766;53.194;5.532;2022-11-24T10:29:57;7.07;;;3.13;;
51556;SDS011;38766;53.194;5.532;2022-11-24T10:32:26;9.55;;;2.92;;
51556;SDS011;38766;53.194;5.532;2022-11-24T10:35:12;7.45;;;2.90;;
51556;SDS011;38766;53.194;5.532;2022-11-24T10:38:04;6.82;;;2.75;;
51556;SDS011;38766;53.194;5.532;2022-11-24T10:40:44;10.45;;;2.90;;
51556;SDS011;38766;53.194;5.532;2022-11-24T10:43:21;12.43;;;2.95;;
51556;SDS011;38766;53.194;5.532;2022-11-24T10:45:49;11.70;;;3.05;;
51556;SDS011;38766;53.194;5.532;2022-11-24T10:48:23;6.25;;;2.50;;
51556;SDS011;38766;53.194;5.532;2022-11-24T10:50:51;12.05;;;3.58;;
51556;SDS011;38766;53.194;5.532;2022-11-24T10:53:21;8.70;;;2.80;;
51556;SDS011;38766;53.194;5.532;2022-11-24T10:58:21;10.40;;;2.85;;
51556;SDS011;38766;53.194;5.532;2022-11-24T11:00:47;8.10;;;2.97;;
51556;SDS011;38766;53.194;5.532;2022-11-24T11:03:23;9.63;;;2.63;;
51556;SDS011;38766;53.194;5.532;2022-11-24T11:05:59;13.65;;;2.90;;
51556;SDS011;38766;53.194;5.532;2022-11-24T11:08:34;9.48;;;3.00;;
51556;SDS011;38766;53.194;5.532;2022-11-24T11:11:10;11.40;;;3.25;;
51556;SDS011;38766;53.194;5.532;2022-11-24T11:16:24;9.93;;;2.78;;
51556;SDS011;38766;53.194;5.532;2022-11-24T11:18:54;11.10;;;2.97;;
51556;SDS011;38766;53.194;5.532;2022-11-24T11:24:04;10.40;;;3.35;;
51556;SDS011;38766;53.194;5.532;2022-11-24T11:26:39;13.63;;;3.17;;
51556;SDS011;38766;53.194;5.532;2022-11-24T11:29:13;10.73;;;3.28;;
51556;SDS011;38766;53.194;5.532;2022-11-24T11:31:40;9.90;;;2.90;;
51556;SDS011;38766;53.194;5.532;2022-11-24T11:36:48;13.20;;;2.97;;
51556;SDS011;38766;53.194;5.532;2022-11-24T11:42:40;8.77;;;2.53;;
51556;SDS011;38766;53.194;5.532;2022-11-24T11:47:35;11.65;;;3.95;;
51556;SDS011;38766;53.194;5.532;2022-11-24T11:50:16;7.05;;;2.85;;
51556;SDS011;38766;53.194;5.532;2022-11-24T11:55:29;6.70;;;2.92;;
51556;SDS011;38766;53.194;5.532;2022-11-24T12:00:56;13.20;;;3.38;;
51556;SDS011;38766;53.194;5.532;2022-11-24T12:04:13;19.42;;;3.78;;
51556;SDS011;38766;53.194;5.532;2022-11-24T12:15:57;16.17;;;3.97;;
51556;SDS011;38766;53.194;5.532;2022-11-24T12:18:42;9.85;;;3.72;;
51556;SDS011;38766;53.194;5.532;2022-11-24T12:27:38;13.13;;;3.88;;
51556;SDS011;38766;53.194;5.532;2022-11-24T12:30:16;10.60;;;3.20;;
51556;SDS011;38766;53.194;5.532;2022-11-24T12:38:17;13.70;;;3.67;;
51556;SDS011;38766;53.194;5.532;2022-11-24T12:43:59;17.88;;;4.30;;
51556;SDS011;38766;53.194;5.532;2022-11-24T12:46:30;10.55;;;4.20;;
51556;SDS011;38766;53.194;5.532;2022-11-24T12:49:53;11.85;;;4.20;;
51556;SDS011;38766;53.194;5.532;2022-11-24T12:52:20;14.55;;;4.00;;
51556;SDS011;38766;53.194;5.532;2022-11-24T12:54:49;11.40;;;4.25;;
51556;SDS011;38766;53.194;5.532;2022-11-24T12:57:17;13.10;;;3.88;;
51556;SDS011;38766;53.194;5.532;2022-11-24T13:05:13;10.45;;;3.50;;
51556;SDS011;38766;53.194;5.532;2022-11-24T13:07:49;13.48;;;4.18;;
51556;SDS011;38766;53.194;5.532;2022-11-24T13:12:52;14.07;;;4.57;;
51556;SDS011;38766;53.194;5.532;2022-11-24T13:15:22;18.33;;;4.85;;
51556;SDS011;38766;53.194;5.532;2022-11-24T13:17:48;13.68;;;3.80;;
51556;SDS011;38766;53.194;5.532;2022-11-24T13:22:53;15.02;;;4.32;;
51556;SDS011;38766;53.194;5.532;2022-11-24T13:25:27;14.25;;;3.50;;
51556;SDS011;38766;53.194;5.532;2022-11-24T13:27:54;9.67;;;3.77;;
51556;SDS011;38766;53.194;5.532;2022-11-24T13:36:50;17.08;;;3.20;;
51556;SDS011;38766;53.194;5.532;2022-11-24T13:38:58;20.92;;;3.88;;
51556;SDS011;38766;53.194;5.532;2022-11-24T13:46:54;8.80;;;3.20;;
51556;SDS011;38766;53.194;5.532;2022-11-24T13:49:19;20.23;;;3.28;;
51556;SDS011;38766;53.194;5.532;2022-11-24T13:51:45;15.38;;;4.18;;
51556;SDS011;38766;53.194;5.532;2022-11-24T13:54:11;18.02;;;3.95;;
51556;SDS011;38766;53.194;5.532;2022-11-24T13:56:36;15.50;;;4.13;;
51556;SDS011;38766;53.194;5.532;2022-11-24T13:59:13;20.33;;;3.90;;
51556;SDS011;38766;53.194;5.532;2022-11-24T14:01:42;10.70;;;3.58;;
51556;SDS011;38766;53.194;5.532;2022-11-24T14:04:15;16.58;;;3.05;;
51556;SDS011;38766;53.194;5.532;2022-11-24T14:06:44;21.15;;;4.03;;
51556;SDS011;38766;53.194;5.532;2022-11-24T14:12:05;13.93;;;4.18;;
51556;SDS011;38766;53.194;5.532;2022-11-24T14:14:45;17.35;;;3.97;;
51556;SDS011;38766;53.194;5.532;2022-11-24T14:17:14;23.17;;;4.32;;
51556;SDS011;38766;53.194;5.532;2022-11-24T14:19:42;12.27;;;3.22;;
51556;SDS011;38766;53.194;5.532;2022-11-24T14:22:11;17.52;;;3.28;;
51556;SDS011;38766;53.194;5.532;2022-11-24T14:24:56;15.82;;;3.35;;
51556;SDS011;38766;53.194;5.532;2022-11-24T14:27:30;17.02;;;3.90;;
51556;SDS011;38766;53.194;5.532;2022-11-24T14:30:02;13.98;;;3.67;;
51556;SDS011;38766;53.194;5.532;2022-11-24T14:32:31;19.10;;;3.60;;
51556;SDS011;38766;53.194;5.532;2022-11-24T14:34:57;21.95;;;4.07;;
51556;SDS011;38766;53.194;5.532;2022-11-24T14:37:23;11.18;;;3.40;;
51556;SDS011;38766;53.194;5.532;2022-11-24T14:39:48;15.38;;;3.40;;
51556;SDS011;38766;53.194;5.532;2022-11-24T14:42:15;15.18;;;3.28;;
51556;SDS011;38766;53.194;5.532;2022-11-24T14:44:58;15.52;;;4.05;;
51556;SDS011;38766;53.194;5.532;2022-11-24T14:47:28;16.33;;;3.88;;
51556;SDS011;38766;53.194;5.532;2022-11-24T14:49:56;17.40;;;3.92;;
51556;SDS011;38766;53.194;5.532;2022-11-24T14:52:29;14.90;;;3.53;;
51556;SDS011;38766;53.194;5.532;2022-11-24T14:54:56;14.35;;;3.38;;
51556;SDS011;38766;53.194;5.532;2022-11-24T15:00:05;18.58;;;3.88;;
51556;SDS011;38766;53.194;5.532;2022-11-24T15:05:48;15.18;;;3.97;;
51556;SDS011;38766;53.194;5.532;2022-11-24T15:08:15;15.98;;;4.05;;
51556;SDS011;38766;53.194;5.532;2022-11-24T15:10:41;13.23;;;3.72;;
51556;SDS011;38766;53.194;5.532;2022-11-24T15:13:15;16.58;;;4.55;;
51556;SDS011;38766;53.194;5.532;2022-11-24T15:15:57;17.58;;;4.93;;
51556;SDS011;38766;53.194;5.532;2022-11-24T15:18:36;15.93;;;4.20;;
51556;SDS011;38766;53.194;5.532;2022-11-24T15:21:07;15.48;;;3.53;;
51556;SDS011;38766;53.194;5.532;2022-11-24T15:23:33;16.05;;;4.13;;
51556;SDS011;38766;53.194;5.532;2022-11-24T15:28:25;14.95;;;4.20;;
51556;SDS011;38766;53.194;5.532;2022-11-24T15:30:52;17.88;;;4.25;;
51556;SDS011;38766;53.194;5.532;2022-11-24T15:33:19;15.48;;;3.83;;
51556;SDS011;38766;53.194;5.532;2022-11-24T15:35:46;17.80;;;4.38;;
51556;SDS011;38766;53.194;5.532;2022-11-24T15:38:12;14.45;;;4.45;;
51556;SDS011;38766;53.194;5.532;2022-11-24T15:40:39;20.10;;;4.25;;
51556;SDS011;38766;53.194;5.532;2022-11-24T15:45:53;14.60;;;3.13;;
51556;SDS011;38766;53.194;5.532;2022-11-24T15:48:19;17.80;;;4.20;;
51556;SDS011;38766;53.194;5.532;2022-11-24T15:50:45;12.85;;;3.05;;
51556;SDS011;38766;53.194;5.532;2022-11-24T15:53:15;16.13;;;4.35;;
51556;SDS011;38766;53.194;5.532;2022-11-24T15:55:47;13.85;;;3.85;;
51556;SDS011;38766;53.194;5.532;2022-11-24T15:58:14;16.10;;;4.35;;
51556;SDS011;38766;53.194;5.532;2022-11-24T16:00:40;20.88;;;4.43;;
51556;SDS011;38766;53.194;5.532;2022-11-24T16:03:06;17.65;;;3.92;;
51556;SDS011;38766;53.194;5.532;2022-11-24T16:05:33;14.65;;;3.90;;
51556;SDS011;38766;53.194;5.532;2022-11-24T16:08:00;15.35;;;3.63;;
51556;SDS011;38766;53.194;5.532;2022-11-24T16:10:30;17.90;;;4.10;;
51556;SDS011;38766;53.194;5.532;2022-11-24T16:12:58;23.85;;;4.53;;
51556;SDS011;38766;53.194;5.532;2022-11-24T16:15:24;17.90;;;3.80;;
51556;SDS011;38766;53.194;5.532;2022-11-24T16:17:50;15.40;;;3.88;;
51556;SDS011;38766;53.194;5.532;2022-11-24T16:20:16;20.02;;;4.97;;
51556;SDS011;38766;53.194;5.532;2022-11-24T16:22:42;17.60;;;4.38;;
51556;SDS011;38766;53.194;5.532;2022-11-24T16:25:08;18.02;;;3.90;;
51556;SDS011;38766;53.194;5.532;2022-11-24T16:27:33;23.65;;;4.32;;
51556;SDS011;38766;53.194;5.532;2022-11-24T16:29:59;20.30;;;4.20;;
51556;SDS011;38766;53.194;5.532;2022-11-24T16:32:25;16.00;;;4.03;;
51556;SDS011;38766;53.194;5.532;2022-11-24T16:34:51;16.67;;;4.05;;
51556;SDS011;38766;53.194;5.532;2022-11-24T16:37:17;15.68;;;3.83;;